sensor_id;sensor_type;location;lat;lon;timestamp;P1;durP1;ratioP1;P2;durP2;ratioP2
41629;SDS011;27322;49.488;8.480;2023-11-22T00:00:22;4.00;;;1.50;;
41629;SDS011;27322;49.488;8.480;2023-11-22T00:02:48;3.03;;;1.45;;
41629;SDS011;27322;49.488;8.480;2023-11-22T00:05:13;5.43;;;1.50;;
41629;SDS011;27322;49.488;8.480;2023-11-22T00:07:39;4.82;;;1.33;;
41629;SDS011;27322;49.488;8.480;2023-11-22T00:10:05;3.45;;;1.63;;
41629;SDS011;27322;49.488;8.480;2023-11-22T00:12:31;3.90;;;1.50;;
41629;SDS011;27322;49.488;8.480;2023-11-22T00:15:05;4.18;;;1.50;;
41629;SDS011;27322;49.488;8.480;2023-11-22T00:17:32;3.47;;;1.50;;
41629;SDS011;27322;49.488;8.480;2023-11-22T00:19:59;2.97;;;1.40;;
41629;SDS011;27322;49.488;8.480;2023-11-22T00:22:27;4.05;;;1.50;;
41629;SDS011;27322;49.488;8.480;2023-11-22T00:24:53;3.55;;;1.38;;
41629;SDS011;27322;49.488;8.480;2023-11-22T00:27:18;2.80;;;1.10;;
41629;SDS011;27322;49.488;8.480;2023-11-22T00:29:44;3.08;;;1.35;;
41629;SDS011;27322;49.488;8.480;2023-11-22T00:32:11;4.65;;;1.55;;
41629;SDS011;27322;49.488;8.480;2023-11-22T00:34:36;3.38;;;1.25;;
41629;SDS011;27322;49.488;8.480;2023-11-22T00:37:02;4.10;;;1.55;;
41629;SDS011;27322;49.488;8.480;2023-11-22T00:39:28;4.38;;;1.48;;
41629;SDS011;27322;49.488;8.480;2023-11-22T00:41:53;3.50;;;1.50;;
41629;SDS011;27322;49.488;8.480;2023-11-22T00:44:20;4.30;;;1.67;;
41629;SDS011;27322;49.488;8.480;2023-11-22T00:46:46;3.63;;;1.48;;
41629;SDS011;27322;49.488;8.480;2023-11-22T00:49:11;4.10;;;1.65;;
41629;SDS011;27322;49.488;8.480;2023-11-22T00:51:38;2.80;;;1.48;;
41629;SDS011;27322;49.488;8.480;2023-11-22T00:54:03;3.65;;;1.52;;
41629;SDS011;27322;49.488;8.480;2023-11-22T00:56:29;3.78;;;1.55;;
41629;SDS011;27322;49.488;8.480;2023-11-22T00:58:55;4.00;;;1.80;;
41629;SDS011;27322;49.488;8.480;2023-11-22T01:01:24;4.22;;;1.63;;
41629;SDS011;27322;49.488;8.480;2023-11-22T01:03:50;3.67;;;1.60;;
41629;SDS011;27322;49.488;8.480;2023-11-22T01:06:15;3.53;;;1.73;;
41629;SDS011;27322;49.488;8.480;2023-11-22T01:08:43;4.53;;;1.95;;
41629;SDS011;27322;49.488;8.480;2023-11-22T01:11:08;3.65;;;1.50;;
41629;SDS011;27322;49.488;8.480;2023-11-22T01:13:34;4.28;;;1.52;;
41629;SDS011;27322;49.488;8.480;2023-11-22T01:16:06;4.07;;;1.55;;
41629;SDS011;27322;49.488;8.480;2023-11-22T01:18:32;3.00;;;1.50;;
41629;SDS011;27322;49.488;8.480;2023-11-22T01:20:58;3.55;;;1.55;;
41629;SDS011;27322;49.488;8.480;2023-11-22T01:23:23;3.10;;;1.30;;
41629;SDS011;27322;49.488;8.480;2023-11-22T01:25:49;3.95;;;1.98;;
41629;SDS011;27322;49.488;8.480;2023-11-22T01:28:15;4.22;;;1.50;;
41629;SDS011;27322;49.488;8.480;2023-11-22T01:30:42;3.83;;;1.35;;
41629;SDS011;27322;49.488;8.480;2023-11-22T01:33:10;3.95;;;1.67;;
41629;SDS011;27322;49.488;8.480;2023-11-22T01:35:39;3.88;;;1.65;;
41629;SDS011;27322;49.488;8.480;2023-11-22T01:38:05;3.70;;;1.40;;
41629;SDS011;27322;49.488;8.480;2023-11-22T01:40:30;4.50;;;1.67;;
41629;SDS011;27322;49.488;8.480;2023-11-22T01:42:56;5.28;;;1.98;;
41629;SDS011;27322;49.488;8.480;2023-11-22T01:45:27;4.72;;;1.80;;
41629;SDS011;27322;49.488;8.480;2023-11-22T01:47:52;3.42;;;1.48;;
41629;SDS011;27322;49.488;8.480;2023-11-22T01:50:18;3.08;;;1.40;;
41629;SDS011;27322;49.488;8.480;2023-11-22T01:52:44;3.85;;;1.60;;
41629;SDS011;27322;49.488;8.480;2023-11-22T01:55:11;3.75;;;1.55;;
41629;SDS011;27322;49.488;8.480;2023-11-22T01:57:38;3.72;;;1.30;;
41629;SDS011;27322;49.488;8.480;2023-11-22T02:00:04;2.78;;;1.30;;
41629;SDS011;27322;49.488;8.480;2023-11-22T02:02:39;3.33;;;1.50;;
41629;SDS011;27322;49.488;8.480;2023-11-22T02:05:04;2.67;;;1.33;;
41629;SDS011;27322;49.488;8.480;2023-11-22T02:07:30;4.00;;;1.38;;
41629;SDS011;27322;49.488;8.480;2023-11-22T02:09:56;3.70;;;1.40;;
41629;SDS011;27322;49.488;8.480;2023-11-22T02:12:23;3.25;;;1.30;;
41629;SDS011;27322;49.488;8.480;2023-11-22T02:14:48;3.20;;;1.40;;
41629;SDS011;27322;49.488;8.480;2023-11-22T02:17:14;2.75;;;1.10;;
41629;SDS011;27322;49.488;8.480;2023-11-22T02:19:41;3.92;;;1.50;;
41629;SDS011;27322;49.488;8.480;2023-11-22T02:22:08;2.97;;;1.17;;
41629;SDS011;27322;49.488;8.480;2023-11-22T02:24:33;4.63;;;1.40;;
41629;SDS011;27322;49.488;8.480;2023-11-22T02:26:59;3.67;;;1.27;;
41629;SDS011;27322;49.488;8.480;2023-11-22T02:29:25;3.83;;;1.23;;
41629;SDS011;27322;49.488;8.480;2023-11-22T02:31:53;3.85;;;1.35;;
41629;SDS011;27322;49.488;8.480;2023-11-22T02:34:19;2.92;;;1.20;;
41629;SDS011;27322;49.488;8.480;2023-11-22T02:36:44;2.45;;;0.90;;
41629;SDS011;27322;49.488;8.480;2023-11-22T02:39:10;3.03;;;1.00;;
41629;SDS011;27322;49.488;8.480;2023-11-22T02:41:36;3.33;;;1.00;;
41629;SDS011;27322;49.488;8.480;2023-11-22T02:44:02;2.60;;;1.20;;
41629;SDS011;27322;49.488;8.480;2023-11-22T02:46:27;3.20;;;1.27;;
41629;SDS011;27322;49.488;8.480;2023-11-22T02:48:56;3.67;;;1.10;;
41629;SDS011;27322;49.488;8.480;2023-11-22T02:51:21;2.42;;;1.08;;
41629;SDS011;27322;49.488;8.480;2023-11-22T02:53:47;3.28;;;1.13;;
41629;SDS011;27322;49.488;8.480;2023-11-22T02:56:14;3.72;;;1.00;;
41629;SDS011;27322;49.488;8.480;2023-11-22T02:58:40;3.17;;;1.10;;
41629;SDS011;27322;49.488;8.480;2023-11-22T03:01:05;2.42;;;1.10;;
41629;SDS011;27322;49.488;8.480;2023-11-22T03:03:32;5.38;;;1.20;;
41629;SDS011;27322;49.488;8.480;2023-11-22T03:05:58;2.88;;;1.20;;
41629;SDS011;27322;49.488;8.480;2023-11-22T03:08:24;4.72;;;1.13;;
41629;SDS011;27322;49.488;8.480;2023-11-22T03:10:49;3.30;;;1.10;;
41629;SDS011;27322;49.488;8.480;2023-11-22T03:13:16;3.33;;;1.38;;
41629;SDS011;27322;49.488;8.480;2023-11-22T03:15:42;3.47;;;1.38;;
41629;SDS011;27322;49.488;8.480;2023-11-22T03:18:08;3.90;;;1.58;;
41629;SDS011;27322;49.488;8.480;2023-11-22T03:20:33;5.38;;;1.67;;
41629;SDS011;27322;49.488;8.480;2023-11-22T03:22:59;5.10;;;1.50;;
41629;SDS011;27322;49.488;8.480;2023-11-22T03:25:25;5.18;;;2.05;;
41629;SDS011;27322;49.488;8.480;2023-11-22T03:27:50;5.32;;;1.73;;
41629;SDS011;27322;49.488;8.480;2023-11-22T03:30:16;4.05;;;1.60;;
41629;SDS011;27322;49.488;8.480;2023-11-22T03:32:42;3.60;;;1.58;;
41629;SDS011;27322;49.488;8.480;2023-11-22T03:35:09;6.47;;;1.63;;
41629;SDS011;27322;49.488;8.480;2023-11-22T03:37:34;3.70;;;1.70;;
41629;SDS011;27322;49.488;8.480;2023-11-22T03:40:00;3.63;;;1.65;;
41629;SDS011;27322;49.488;8.480;2023-11-22T03:42:26;4.00;;;1.80;;
41629;SDS011;27322;49.488;8.480;2023-11-22T03:44:52;5.88;;;1.90;;
41629;SDS011;27322;49.488;8.480;2023-11-22T03:47:18;5.93;;;1.88;;
41629;SDS011;27322;49.488;8.480;2023-11-22T03:49:44;4.15;;;1.80;;
41629;SDS011;27322;49.488;8.480;2023-11-22T03:52:12;7.22;;;1.88;;
41629;SDS011;27322;49.488;8.480;2023-11-22T03:54:39;4.40;;;1.90;;
41629;SDS011;27322;49.488;8.480;2023-11-22T03:57:04;3.85;;;1.50;;
41629;SDS011;27322;49.488;8.480;2023-11-22T03:59:30;3.97;;;1.80;;
41629;SDS011;27322;49.488;8.480;2023-11-22T04:01:56;4.38;;;1.70;;
41629;SDS011;27322;49.488;8.480;2023-11-22T04:04:22;5.32;;;1.77;;
41629;SDS011;27322;49.488;8.480;2023-11-22T04:06:48;4.07;;;1.80;;
41629;SDS011;27322;49.488;8.480;2023-11-22T04:09:14;3.88;;;1.63;;
41629;SDS011;27322;49.488;8.480;2023-11-22T04:11:41;4.60;;;1.65;;
41629;SDS011;27322;49.488;8.480;2023-11-22T04:14:07;4.78;;;1.73;;
41629;SDS011;27322;49.488;8.480;2023-11-22T04:16:33;4.07;;;1.90;;
41629;SDS011;27322;49.488;8.480;2023-11-22T04:18:59;3.70;;;1.77;;
41629;SDS011;27322;49.488;8.480;2023-11-22T04:21:25;3.40;;;1.40;;
41629;SDS011;27322;49.488;8.480;2023-11-22T04:23:51;4.53;;;1.98;;
41629;SDS011;27322;49.488;8.480;2023-11-22T04:26:16;4.22;;;2.00;;
41629;SDS011;27322;49.488;8.480;2023-11-22T04:28:45;5.00;;;2.00;;
41629;SDS011;27322;49.488;8.480;2023-11-22T04:31:11;5.10;;;1.85;;
41629;SDS011;27322;49.488;8.480;2023-11-22T04:33:36;4.97;;;1.58;;
41629;SDS011;27322;49.488;8.480;2023-11-22T04:36:02;5.53;;;1.98;;
41629;SDS011;27322;49.488;8.480;2023-11-22T04:38:29;5.32;;;1.88;;
41629;SDS011;27322;49.488;8.480;2023-11-22T04:40:55;4.03;;;1.70;;
41629;SDS011;27322;49.488;8.480;2023-11-22T04:43:20;4.65;;;1.77;;
41629;SDS011;27322;49.488;8.480;2023-11-22T04:45:46;3.58;;;1.73;;
41629;SDS011;27322;49.488;8.480;2023-11-22T04:48:12;5.03;;;1.98;;
41629;SDS011;27322;49.488;8.480;2023-11-22T04:50:40;4.95;;;1.92;;
41629;SDS011;27322;49.488;8.480;2023-11-22T04:53:06;5.07;;;2.00;;
41629;SDS011;27322;49.488;8.480;2023-11-22T04:55:31;4.88;;;1.80;;
41629;SDS011;27322;49.488;8.480;2023-11-22T04:57:57;4.05;;;1.63;;
41629;SDS011;27322;49.488;8.480;2023-11-22T05:00:22;6.07;;;1.83;;
41629;SDS011;27322;49.488;8.480;2023-11-22T05:02:48;5.22;;;2.17;;
41629;SDS011;27322;49.488;8.480;2023-11-22T05:05:14;3.95;;;1.75;;
41629;SDS011;27322;49.488;8.480;2023-11-22T05:07:40;6.28;;;2.05;;
41629;SDS011;27322;49.488;8.480;2023-11-22T05:10:06;5.72;;;1.70;;
41629;SDS011;27322;49.488;8.480;2023-11-22T05:12:34;4.53;;;1.98;;
41629;SDS011;27322;49.488;8.480;2023-11-22T05:15:01;4.25;;;2.08;;
41629;SDS011;27322;49.488;8.480;2023-11-22T05:17:27;5.57;;;2.28;;
41629;SDS011;27322;49.488;8.480;2023-11-22T05:19:53;5.00;;;1.83;;
41629;SDS011;27322;49.488;8.480;2023-11-22T05:22:18;6.38;;;2.30;;
41629;SDS011;27322;49.488;8.480;2023-11-22T05:24:44;4.32;;;2.10;;
41629;SDS011;27322;49.488;8.480;2023-11-22T05:27:10;5.90;;;2.17;;
41629;SDS011;27322;49.488;8.480;2023-11-22T05:29:35;5.80;;;2.20;;
41629;SDS011;27322;49.488;8.480;2023-11-22T05:32:02;5.78;;;2.30;;
41629;SDS011;27322;49.488;8.480;2023-11-22T05:34:31;6.38;;;2.33;;
41629;SDS011;27322;49.488;8.480;2023-11-22T05:36:57;6.47;;;1.95;;
41629;SDS011;27322;49.488;8.480;2023-11-22T05:39:22;6.50;;;2.35;;
41629;SDS011;27322;49.488;8.480;2023-11-22T05:41:49;5.65;;;2.03;;
41629;SDS011;27322;49.488;8.480;2023-11-22T05:44:15;6.70;;;2.65;;
41629;SDS011;27322;49.488;8.480;2023-11-22T05:46:40;5.10;;;2.00;;
41629;SDS011;27322;49.488;8.480;2023-11-22T05:49:07;6.38;;;2.30;;
41629;SDS011;27322;49.488;8.480;2023-11-22T05:51:32;5.18;;;1.90;;
41629;SDS011;27322;49.488;8.480;2023-11-22T05:53:59;5.57;;;1.80;;
41629;SDS011;27322;49.488;8.480;2023-11-22T05:56:24;4.75;;;2.10;;
41629;SDS011;27322;49.488;8.480;2023-11-22T05:58:50;4.50;;;1.98;;
41629;SDS011;27322;49.488;8.480;2023-11-22T06:01:16;6.35;;;1.80;;
41629;SDS011;27322;49.488;8.480;2023-11-22T06:03:41;3.85;;;1.80;;
41629;SDS011;27322;49.488;8.480;2023-11-22T06:06:07;3.70;;;1.45;;
41629;SDS011;27322;49.488;8.480;2023-11-22T06:08:33;5.10;;;1.70;;
41629;SDS011;27322;49.488;8.480;2023-11-22T06:10:59;4.93;;;1.75;;
41629;SDS011;27322;49.488;8.480;2023-11-22T06:13:25;4.53;;;1.85;;
41629;SDS011;27322;49.488;8.480;2023-11-22T06:15:51;4.18;;;1.70;;
41629;SDS011;27322;49.488;8.480;2023-11-22T06:18:17;5.70;;;2.30;;
41629;SDS011;27322;49.488;8.480;2023-11-22T06:20:44;4.10;;;1.85;;
41629;SDS011;27322;49.488;8.480;2023-11-22T06:23:10;5.22;;;2.03;;
41629;SDS011;27322;49.488;8.480;2023-11-22T06:25:36;4.68;;;2.13;;
41629;SDS011;27322;49.488;8.480;2023-11-22T06:28:02;4.88;;;2.00;;
41629;SDS011;27322;49.488;8.480;2023-11-22T06:30:28;4.93;;;2.20;;
41629;SDS011;27322;49.488;8.480;2023-11-22T06:32:55;6.70;;;2.50;;
41629;SDS011;27322;49.488;8.480;2023-11-22T06:35:21;5.30;;;2.10;;
41629;SDS011;27322;49.488;8.480;2023-11-22T06:37:47;7.88;;;2.50;;
41629;SDS011;27322;49.488;8.480;2023-11-22T06:40:12;5.65;;;2.55;;
41629;SDS011;27322;49.488;8.480;2023-11-22T06:42:39;6.05;;;2.50;;
41629;SDS011;27322;49.488;8.480;2023-11-22T06:45:08;5.57;;;2.03;;
41629;SDS011;27322;49.488;8.480;2023-11-22T06:47:38;5.40;;;2.47;;
41629;SDS011;27322;49.488;8.480;2023-11-22T06:50:07;5.68;;;2.30;;
41629;SDS011;27322;49.488;8.480;2023-11-22T06:52:40;5.35;;;2.40;;
41629;SDS011;27322;49.488;8.480;2023-11-22T06:55:07;5.15;;;2.08;;
41629;SDS011;27322;49.488;8.480;2023-11-22T06:57:34;5.40;;;2.15;;
41629;SDS011;27322;49.488;8.480;2023-11-22T07:00:00;4.80;;;2.05;;
41629;SDS011;27322;49.488;8.480;2023-11-22T07:02:30;5.35;;;2.20;;
41629;SDS011;27322;49.488;8.480;2023-11-22T07:04:56;6.15;;;1.92;;
41629;SDS011;27322;49.488;8.480;2023-11-22T07:07:24;5.93;;;2.10;;
41629;SDS011;27322;49.488;8.480;2023-11-22T07:09:50;5.03;;;1.70;;
41629;SDS011;27322;49.488;8.480;2023-11-22T07:12:16;4.03;;;1.63;;
41629;SDS011;27322;49.488;8.480;2023-11-22T07:14:41;4.05;;;1.88;;
41629;SDS011;27322;49.488;8.480;2023-11-22T07:17:08;4.45;;;1.60;;
41629;SDS011;27322;49.488;8.480;2023-11-22T07:19:34;4.95;;;1.65;;
41629;SDS011;27322;49.488;8.480;2023-11-22T07:22:03;3.83;;;1.55;;
41629;SDS011;27322;49.488;8.480;2023-11-22T07:24:35;3.35;;;1.48;;
41629;SDS011;27322;49.488;8.480;2023-11-22T07:27:01;4.93;;;1.70;;
41629;SDS011;27322;49.488;8.480;2023-11-22T07:29:27;4.88;;;1.58;;
41629;SDS011;27322;49.488;8.480;2023-11-22T07:31:54;3.50;;;1.67;;
41629;SDS011;27322;49.488;8.480;2023-11-22T07:34:21;4.40;;;1.58;;
41629;SDS011;27322;49.488;8.480;2023-11-22T07:36:47;4.97;;;1.80;;
41629;SDS011;27322;49.488;8.480;2023-11-22T07:39:12;4.82;;;1.63;;
41629;SDS011;27322;49.488;8.480;2023-11-22T07:41:38;4.10;;;1.63;;
41629;SDS011;27322;49.488;8.480;2023-11-22T07:44:03;4.53;;;1.60;;
41629;SDS011;27322;49.488;8.480;2023-11-22T07:46:30;5.15;;;1.83;;
41629;SDS011;27322;49.488;8.480;2023-11-22T07:48:55;6.63;;;1.70;;
41629;SDS011;27322;49.488;8.480;2023-11-22T07:51:22;4.40;;;1.95;;
41629;SDS011;27322;49.488;8.480;2023-11-22T07:53:49;4.28;;;1.65;;
41629;SDS011;27322;49.488;8.480;2023-11-22T07:56:15;3.75;;;1.40;;
41629;SDS011;27322;49.488;8.480;2023-11-22T07:58:40;5.07;;;1.70;;
41629;SDS011;27322;49.488;8.480;2023-11-22T08:01:06;7.10;;;1.73;;
41629;SDS011;27322;49.488;8.480;2023-11-22T08:03:38;4.82;;;1.85;;
41629;SDS011;27322;49.488;8.480;2023-11-22T08:06:10;4.55;;;1.67;;
41629;SDS011;27322;49.488;8.480;2023-11-22T08:08:36;4.47;;;1.60;;
41629;SDS011;27322;49.488;8.480;2023-11-22T08:11:04;4.30;;;1.60;;
41629;SDS011;27322;49.488;8.480;2023-11-22T08:13:39;6.43;;;1.60;;
41629;SDS011;27322;49.488;8.480;2023-11-22T08:16:06;4.53;;;1.75;;
41629;SDS011;27322;49.488;8.480;2023-11-22T08:18:33;3.97;;;1.77;;
41629;SDS011;27322;49.488;8.480;2023-11-22T08:20:59;5.53;;;1.83;;
41629;SDS011;27322;49.488;8.480;2023-11-22T08:23:25;4.88;;;1.50;;
41629;SDS011;27322;49.488;8.480;2023-11-22T08:25:51;3.75;;;1.42;;
41629;SDS011;27322;49.488;8.480;2023-11-22T08:28:18;4.07;;;1.55;;
41629;SDS011;27322;49.488;8.480;2023-11-22T08:30:44;4.53;;;1.40;;
41629;SDS011;27322;49.488;8.480;2023-11-22T08:33:09;4.70;;;1.50;;
41629;SDS011;27322;49.488;8.480;2023-11-22T08:35:35;4.60;;;1.45;;
41629;SDS011;27322;49.488;8.480;2023-11-22T08:38:01;5.45;;;1.67;;
41629;SDS011;27322;49.488;8.480;2023-11-22T08:40:28;4.65;;;1.45;;
41629;SDS011;27322;49.488;8.480;2023-11-22T08:42:54;4.60;;;1.50;;
41629;SDS011;27322;49.488;8.480;2023-11-22T08:45:20;5.65;;;1.88;;
41629;SDS011;27322;49.488;8.480;2023-11-22T08:47:46;3.55;;;1.50;;
41629;SDS011;27322;49.488;8.480;2023-11-22T08:50:11;3.90;;;1.70;;
41629;SDS011;27322;49.488;8.480;2023-11-22T08:52:40;4.63;;;1.70;;
41629;SDS011;27322;49.488;8.480;2023-11-22T08:55:10;3.90;;;1.60;;
41629;SDS011;27322;49.488;8.480;2023-11-22T08:57:36;4.35;;;1.50;;
41629;SDS011;27322;49.488;8.480;2023-11-22T09:00:02;4.03;;;1.48;;
41629;SDS011;27322;49.488;8.480;2023-11-22T09:02:32;3.30;;;1.40;;
41629;SDS011;27322;49.488;8.480;2023-11-22T09:04:58;4.80;;;1.40;;
41629;SDS011;27322;49.488;8.480;2023-11-22T09:07:24;3.38;;;1.42;;
41629;SDS011;27322;49.488;8.480;2023-11-22T09:09:49;4.95;;;1.67;;
41629;SDS011;27322;49.488;8.480;2023-11-22T09:12:16;3.08;;;1.20;;
41629;SDS011;27322;49.488;8.480;2023-11-22T09:14:44;3.60;;;1.30;;
41629;SDS011;27322;49.488;8.480;2023-11-22T09:17:10;3.55;;;1.52;;
41629;SDS011;27322;49.488;8.480;2023-11-22T09:19:36;2.90;;;1.30;;
41629;SDS011;27322;49.488;8.480;2023-11-22T09:22:02;4.22;;;1.40;;
41629;SDS011;27322;49.488;8.480;2023-11-22T09:24:28;3.83;;;1.50;;
41629;SDS011;27322;49.488;8.480;2023-11-22T09:26:54;4.32;;;1.58;;
41629;SDS011;27322;49.488;8.480;2023-11-22T09:29:19;7.55;;;1.55;;
41629;SDS011;27322;49.488;8.480;2023-11-22T09:31:45;4.07;;;1.30;;
41629;SDS011;27322;49.488;8.480;2023-11-22T09:34:12;4.03;;;1.45;;
41629;SDS011;27322;49.488;8.480;2023-11-22T09:36:38;4.13;;;1.45;;
41629;SDS011;27322;49.488;8.480;2023-11-22T09:39:04;2.75;;;1.23;;
41629;SDS011;27322;49.488;8.480;2023-11-22T09:41:33;3.35;;;1.35;;
41629;SDS011;27322;49.488;8.480;2023-11-22T09:44:00;3.58;;;1.42;;
41629;SDS011;27322;49.488;8.480;2023-11-22T09:46:25;3.60;;;1.52;;
41629;SDS011;27322;49.488;8.480;2023-11-22T09:48:52;3.90;;;1.50;;
41629;SDS011;27322;49.488;8.480;2023-11-22T09:51:22;4.20;;;1.50;;
41629;SDS011;27322;49.488;8.480;2023-11-22T09:53:55;4.93;;;1.42;;
41629;SDS011;27322;49.488;8.480;2023-11-22T09:56:25;3.58;;;1.40;;
41629;SDS011;27322;49.488;8.480;2023-11-22T09:58:51;3.58;;;1.38;;
41629;SDS011;27322;49.488;8.480;2023-11-22T10:01:22;2.88;;;1.25;;
41629;SDS011;27322;49.488;8.480;2023-11-22T10:03:48;3.35;;;1.75;;
41629;SDS011;27322;49.488;8.480;2023-11-22T10:06:15;6.68;;;1.50;;
41629;SDS011;27322;49.488;8.480;2023-11-22T10:08:42;4.25;;;1.52;;
41629;SDS011;27322;49.488;8.480;2023-11-22T10:11:08;4.00;;;1.60;;
41629;SDS011;27322;49.488;8.480;2023-11-22T10:13:34;4.65;;;1.55;;
41629;SDS011;27322;49.488;8.480;2023-11-22T10:16:13;4.00;;;1.67;;
41629;SDS011;27322;49.488;8.480;2023-11-22T10:18:47;3.58;;;1.40;;
41629;SDS011;27322;49.488;8.480;2023-11-22T10:21:31;4.05;;;1.65;;
41629;SDS011;27322;49.488;8.480;2023-11-22T10:23:59;3.72;;;1.50;;
41629;SDS011;27322;49.488;8.480;2023-11-22T10:26:27;4.55;;;1.60;;
41629;SDS011;27322;49.488;8.480;2023-11-22T10:28:53;4.25;;;1.50;;
41629;SDS011;27322;49.488;8.480;2023-11-22T10:31:21;3.88;;;1.55;;
41629;SDS011;27322;49.488;8.480;2023-11-22T10:33:48;3.78;;;1.50;;
41629;SDS011;27322;49.488;8.480;2023-11-22T10:36:14;3.90;;;1.60;;
41629;SDS011;27322;49.488;8.480;2023-11-22T10:38:40;4.05;;;1.60;;
41629;SDS011;27322;49.488;8.480;2023-11-22T10:41:07;4.70;;;1.55;;
41629;SDS011;27322;49.488;8.480;2023-11-22T10:43:34;4.18;;;1.63;;
41629;SDS011;27322;49.488;8.480;2023-11-22T10:46:03;3.80;;;1.55;;
41629;SDS011;27322;49.488;8.480;2023-11-22T10:48:35;4.95;;;1.80;;
41629;SDS011;27322;49.488;8.480;2023-11-22T10:51:01;5.57;;;1.92;;
41629;SDS011;27322;49.488;8.480;2023-11-22T10:53:38;5.30;;;1.52;;
41629;SDS011;27322;49.488;8.480;2023-11-22T10:56:12;5.25;;;1.80;;
41629;SDS011;27322;49.488;8.480;2023-11-22T10:58:47;4.45;;;1.77;;
41629;SDS011;27322;49.488;8.480;2023-11-22T11:01:17;3.70;;;1.35;;
41629;SDS011;27322;49.488;8.480;2023-11-22T11:03:45;5.97;;;2.00;;
41629;SDS011;27322;49.488;8.480;2023-11-22T11:06:18;4.57;;;1.52;;
41629;SDS011;27322;49.488;8.480;2023-11-22T11:08:46;3.97;;;1.63;;
41629;SDS011;27322;49.488;8.480;2023-11-22T11:11:13;6.07;;;1.35;;
41629;SDS011;27322;49.488;8.480;2023-11-22T11:13:40;3.78;;;1.80;;
41629;SDS011;27322;49.488;8.480;2023-11-22T11:16:07;4.90;;;1.58;;
41629;SDS011;27322;49.488;8.480;2023-11-22T11:18:33;3.63;;;1.67;;
41629;SDS011;27322;49.488;8.480;2023-11-22T11:21:00;8.30;;;1.85;;
41629;SDS011;27322;49.488;8.480;2023-11-22T11:23:33;3.28;;;1.45;;
41629;SDS011;27322;49.488;8.480;2023-11-22T11:25:59;4.68;;;1.90;;
41629;SDS011;27322;49.488;8.480;2023-11-22T11:28:42;4.88;;;2.05;;
41629;SDS011;27322;49.488;8.480;2023-11-22T11:31:09;4.30;;;1.77;;
41629;SDS011;27322;49.488;8.480;2023-11-22T11:33:36;5.72;;;1.27;;
41629;SDS011;27322;49.488;8.480;2023-11-22T11:38:51;4.70;;;1.65;;
41629;SDS011;27322;49.488;8.480;2023-11-22T11:41:22;5.97;;;2.15;;
41629;SDS011;27322;49.488;8.480;2023-11-22T11:43:59;3.53;;;1.45;;
41629;SDS011;27322;49.488;8.480;2023-11-22T11:46:27;3.63;;;1.67;;
41629;SDS011;27322;49.488;8.480;2023-11-22T11:48:54;3.90;;;1.65;;
41629;SDS011;27322;49.488;8.480;2023-11-22T11:51:24;5.03;;;1.88;;
41629;SDS011;27322;49.488;8.480;2023-11-22T11:53:51;5.93;;;2.05;;
41629;SDS011;27322;49.488;8.480;2023-11-22T11:56:17;4.00;;;1.77;;
41629;SDS011;27322;49.488;8.480;2023-11-22T11:58:43;3.78;;;1.60;;
41629;SDS011;27322;49.488;8.480;2023-11-22T12:01:18;6.00;;;2.13;;
41629;SDS011;27322;49.488;8.480;2023-11-22T12:03:46;4.43;;;1.58;;
41629;SDS011;27322;49.488;8.480;2023-11-22T12:06:15;5.03;;;1.80;;
41629;SDS011;27322;49.488;8.480;2023-11-22T12:08:42;4.60;;;1.90;;
41629;SDS011;27322;49.488;8.480;2023-11-22T12:11:08;6.03;;;2.30;;
41629;SDS011;27322;49.488;8.480;2023-11-22T12:13:35;3.92;;;1.40;;
41629;SDS011;27322;49.488;8.480;2023-11-22T12:16:03;5.40;;;1.80;;
41629;SDS011;27322;49.488;8.480;2023-11-22T12:18:38;5.30;;;1.70;;
41629;SDS011;27322;49.488;8.480;2023-11-22T12:21:11;4.38;;;1.63;;
41629;SDS011;27322;49.488;8.480;2023-11-22T12:23:40;4.90;;;1.70;;
41629;SDS011;27322;49.488;8.480;2023-11-22T12:26:11;4.78;;;1.77;;
41629;SDS011;27322;49.488;8.480;2023-11-22T12:28:39;4.45;;;1.90;;
41629;SDS011;27322;49.488;8.480;2023-11-22T12:33:37;3.92;;;1.70;;
41629;SDS011;27322;49.488;8.480;2023-11-22T12:36:05;3.92;;;1.67;;
41629;SDS011;27322;49.488;8.480;2023-11-22T12:38:31;3.40;;;1.52;;
41629;SDS011;27322;49.488;8.480;2023-11-22T12:40:57;5.05;;;2.17;;
41629;SDS011;27322;49.488;8.480;2023-11-22T12:43:24;5.00;;;1.90;;
41629;SDS011;27322;49.488;8.480;2023-11-22T12:48:31;3.53;;;1.58;;
41629;SDS011;27322;49.488;8.480;2023-11-22T12:50:58;5.32;;;1.80;;
41629;SDS011;27322;49.488;8.480;2023-11-22T12:53:25;4.43;;;1.40;;
41629;SDS011;27322;49.488;8.480;2023-11-22T12:55:53;4.65;;;1.67;;
41629;SDS011;27322;49.488;8.480;2023-11-22T12:58:19;3.50;;;1.50;;
41629;SDS011;27322;49.488;8.480;2023-11-22T13:00:46;4.43;;;1.70;;
41629;SDS011;27322;49.488;8.480;2023-11-22T13:03:13;4.15;;;1.73;;
41629;SDS011;27322;49.488;8.480;2023-11-22T13:05:40;4.25;;;1.70;;
41629;SDS011;27322;49.488;8.480;2023-11-22T13:08:08;4.32;;;1.67;;
41629;SDS011;27322;49.488;8.480;2023-11-22T13:10:36;4.25;;;1.45;;
41629;SDS011;27322;49.488;8.480;2023-11-22T13:13:01;4.97;;;1.70;;
41629;SDS011;27322;49.488;8.480;2023-11-22T13:15:27;5.10;;;1.67;;
41629;SDS011;27322;49.488;8.480;2023-11-22T13:17:53;5.43;;;1.98;;
41629;SDS011;27322;49.488;8.480;2023-11-22T13:20:23;4.72;;;1.70;;
41629;SDS011;27322;49.488;8.480;2023-11-22T13:22:51;4.60;;;1.60;;
41629;SDS011;27322;49.488;8.480;2023-11-22T13:25:17;3.42;;;1.40;;
41629;SDS011;27322;49.488;8.480;2023-11-22T13:27:44;4.18;;;1.80;;
41629;SDS011;27322;49.488;8.480;2023-11-22T13:30:11;4.25;;;1.67;;
41629;SDS011;27322;49.488;8.480;2023-11-22T13:32:37;6.60;;;1.92;;
41629;SDS011;27322;49.488;8.480;2023-11-22T13:35:06;5.65;;;1.88;;
41629;SDS011;27322;49.488;8.480;2023-11-22T13:37:39;4.25;;;1.60;;
41629;SDS011;27322;49.488;8.480;2023-11-22T13:40:07;4.05;;;1.55;;
41629;SDS011;27322;49.488;8.480;2023-11-22T13:42:39;5.63;;;2.10;;
41629;SDS011;27322;49.488;8.480;2023-11-22T13:45:06;4.53;;;1.77;;
41629;SDS011;27322;49.488;8.480;2023-11-22T13:47:32;5.40;;;2.00;;
41629;SDS011;27322;49.488;8.480;2023-11-22T13:49:58;4.72;;;1.88;;
41629;SDS011;27322;49.488;8.480;2023-11-22T13:52:24;3.90;;;1.48;;
41629;SDS011;27322;49.488;8.480;2023-11-22T13:54:49;5.43;;;1.75;;
41629;SDS011;27322;49.488;8.480;2023-11-22T13:57:16;4.25;;;1.77;;
41629;SDS011;27322;49.488;8.480;2023-11-22T13:59:42;5.15;;;1.95;;
41629;SDS011;27322;49.488;8.480;2023-11-22T14:02:08;3.55;;;1.75;;
41629;SDS011;27322;49.488;8.480;2023-11-22T14:04:33;4.65;;;1.88;;
41629;SDS011;27322;49.488;8.480;2023-11-22T14:06:59;4.65;;;1.90;;
41629;SDS011;27322;49.488;8.480;2023-11-22T14:09:25;3.83;;;1.45;;
41629;SDS011;27322;49.488;8.480;2023-11-22T14:11:52;3.83;;;1.52;;
41629;SDS011;27322;49.488;8.480;2023-11-22T14:14:18;4.47;;;1.63;;
41629;SDS011;27322;49.488;8.480;2023-11-22T14:16:44;3.58;;;1.60;;
41629;SDS011;27322;49.488;8.480;2023-11-22T14:19:11;3.97;;;1.70;;
41629;SDS011;27322;49.488;8.480;2023-11-22T14:21:38;3.45;;;1.35;;
41629;SDS011;27322;49.488;8.480;2023-11-22T14:24:03;3.75;;;1.63;;
41629;SDS011;27322;49.488;8.480;2023-11-22T14:26:29;4.65;;;1.45;;
41629;SDS011;27322;49.488;8.480;2023-11-22T14:28:55;4.30;;;1.52;;
41629;SDS011;27322;49.488;8.480;2023-11-22T14:31:20;4.20;;;1.67;;
41629;SDS011;27322;49.488;8.480;2023-11-22T14:33:47;5.35;;;1.55;;
41629;SDS011;27322;49.488;8.480;2023-11-22T14:36:12;4.13;;;1.60;;
41629;SDS011;27322;49.488;8.480;2023-11-22T14:38:40;4.00;;;1.63;;
41629;SDS011;27322;49.488;8.480;2023-11-22T14:41:07;4.68;;;1.58;;
41629;SDS011;27322;49.488;8.480;2023-11-22T14:43:35;3.60;;;1.58;;
41629;SDS011;27322;49.488;8.480;2023-11-22T14:46:00;4.20;;;1.70;;
41629;SDS011;27322;49.488;8.480;2023-11-22T14:48:26;5.60;;;1.58;;
41629;SDS011;27322;49.488;8.480;2023-11-22T14:50:52;5.35;;;1.95;;
41629;SDS011;27322;49.488;8.480;2023-11-22T14:53:17;5.40;;;2.17;;